createdAt,value
2023-03-29T00:01:36.164Z,99925.50
2023-03-29T00:04:39.059Z,99918.91
2023-03-29T00:07:41.836Z,99917.97
2023-03-29T00:10:43.801Z,99913.47
2023-03-29T00:13:46.443Z,99921.81
2023-03-29T00:16:48.905Z,99930.28
2023-03-29T00:19:51.026Z,99924.53
2023-03-29T00:22:52.933Z,99918.72
2023-03-29T00:25:55.775Z,99922.78
2023-03-29T00:28:57.637Z,99922.88
2023-03-29T00:32:00.288Z,99926.88
2023-03-29T00:35:02.395Z,99933.00
2023-03-29T00:38:06.218Z,99928.69
2023-03-29T00:41:09.197Z,99927.94
2023-03-29T00:44:55.400Z,99924.53
2023-03-29T00:48:03.012Z,99926.09
2023-03-29T00:51:10.051Z,99927.06
2023-03-29T00:54:18.748Z,99923.84
2023-03-29T00:57:22.565Z,99927.06
2023-03-29T01:00:31.820Z,99929.59
2023-03-29T01:03:46.382Z,99924.66
2023-03-29T01:07:06.412Z,99929.59
2023-03-29T01:10:16.229Z,99922.00
2023-03-29T01:13:27.295Z,99932.16
2023-03-29T01:16:33.109Z,99934.59
2023-03-29T01:19:42.310Z,99930.38
2023-03-29T01:23:03.365Z,99936.25
2023-03-29T01:26:23.020Z,99939.72
2023-03-29T01:29:29.266Z,99942.44
2023-03-29T01:32:42.228Z,99940.03
2023-03-29T01:35:51.174Z,99945.91
2023-03-29T01:38:57.081Z,99945.16
2023-03-29T01:42:10.017Z,99943.44
2023-03-29T01:45:27.015Z,99941.75
2023-03-29T01:48:36.470Z,99939.25
2023-03-29T01:51:48.325Z,99949.44
2023-03-29T01:55:08.872Z,99942.72
2023-03-29T01:58:13.454Z,99947.00
2023-03-29T02:01:21.383Z,99961.34
2023-03-29T02:04:30.559Z,99954.66
2023-03-29T02:07:37.348Z,99955.50
2023-03-29T02:10:39.866Z,99952.84
2023-03-29T02:13:42.125Z,99963.09
2023-03-29T02:16:46.349Z,99949.66
2023-03-29T02:19:51.907Z,99965.63
2023-03-29T02:23:08.910Z,99966.56
2023-03-29T02:26:11.576Z,99961.53
2023-03-29T02:29:14.134Z,99969.13
2023-03-29T02:32:21.137Z,99968.25
2023-03-29T02:35:53.342Z,99969.91
2023-03-29T02:38:58.035Z,99965.69
2023-03-29T02:42:03.049Z,99965.94
2023-03-29T02:45:06.312Z,99974.44
2023-03-29T02:48:12.551Z,99976.94
2023-03-29T02:51:22.093Z,99971.16
2023-03-29T02:54:29.969Z,99977.22
2023-03-29T02:57:32.486Z,99966.16
2023-03-29T03:00:38.344Z,99975.41
2023-03-29T03:03:41.395Z,99972.16
2023-03-29T03:06:43.463Z,99976.31
2023-03-29T03:09:47.711Z,99972.09
2023-03-29T03:12:49.978Z,99977.94
2023-03-29T03:15:51.985Z,99989.72
2023-03-29T03:18:55.763Z,99983.75
2023-03-29T03:21:57.842Z,99989.72
2023-03-29T03:24:59.753Z,99993.09
2023-03-29T03:28:02.545Z,99992.28
2023-03-29T03:31:05.426Z,99988.91
2023-03-29T03:34:27.694Z,99998.16
2023-03-29T03:37:34.947Z,99999.00
2023-03-29T03:40:37.364Z,100004.00
2023-03-29T03:43:42.438Z,100007.31
2023-03-29T03:46:44.392Z,100008.16
2023-03-29T03:49:46.635Z,100013.25
2023-03-29T03:52:50.196Z,100016.69
2023-03-29T03:55:55.945Z,100024.28
2023-03-29T03:59:01.557Z,100037.88
2023-03-29T04:02:08.125Z,100033.66
2023-03-29T04:05:12.602Z,100027.81
2023-03-29T04:08:15.137Z,100037.91
2023-03-29T04:11:36.957Z,100042.94
2023-03-29T04:14:40.427Z,100045.47
2023-03-29T04:17:46.089Z,100048.84
2023-03-29T04:20:59.636Z,100049.66
2023-03-29T04:24:03.739Z,100050.50
2023-03-29T04:27:08.815Z,100045.47
2023-03-29T04:30:11.757Z,100053.03
2023-03-29T04:33:35.158Z,100054.59
2023-03-29T04:36:36.990Z,100064.66
2023-03-29T04:39:42.439Z,100065.44
2023-03-29T04:42:45.938Z,100071.19
2023-03-29T04:45:48.046Z,100073.63
2023-03-29T04:49:04.307Z,100072.13
2023-03-29T04:52:10.457Z,100071.91
2023-03-29T04:55:13.159Z,100083.59
2023-03-29T04:58:31.632Z,100081.38
2023-03-29T05:01:35.163Z,100073.00
2023-03-29T05:04:37.237Z,100077.72
2023-03-29T05:07:46.530Z,100076.69
2023-03-29T05:10:50.859Z,100071.78
2023-03-29T05:13:52.961Z,100070.84
2023-03-29T05:16:56.259Z,100066.31
2023-03-29T05:19:58.370Z,100057.22
2023-03-29T05:23:01.492Z,100070.06
2023-03-29T05:26:23.254Z,100069.47
2023-03-29T05:29:28.434Z,100068.34
2023-03-29T05:32:45.162Z,100069.81
2023-03-29T05:35:58.164Z,100068.88
2023-03-29T05:39:00.426Z,100071.19
2023-03-29T05:42:04.599Z,100068.56
2023-03-29T05:45:11.608Z,100073.53
2023-03-29T05:48:15.067Z,100062.34
2023-03-29T05:51:19.028Z,100082.44
2023-03-29T05:54:21.089Z,100085.28
2023-03-29T05:57:23.113Z,100092.91
2023-03-29T06:00:25.805Z,100087.91
2023-03-29T06:03:39.488Z,100088.28
2023-03-29T06:06:42.078Z,100084.56
2023-03-29T06:09:44.709Z,100080.66
2023-03-29T06:12:47.731Z,100089.66
2023-03-29T06:15:50.077Z,100092.53
2023-03-29T06:18:54.232Z,100099.69
2023-03-29T06:21:56.660Z,100105.72
2023-03-29T06:25:02.566Z,100111.50
2023-03-29T06:28:07.733Z,100113.28
2023-03-29T06:31:11.041Z,100101.78
2023-03-29T06:34:16.493Z,100107.72
2023-03-29T06:37:35.570Z,100118.47
2023-03-29T06:40:52.817Z,100120.00
2023-03-29T06:43:58.358Z,100121.38
2023-03-29T06:47:08.616Z,100114.69
2023-03-29T06:50:11.757Z,100113.13
2023-03-29T06:53:28.221Z,100119.97
2023-03-29T06:56:35.202Z,100111.34
2023-03-29T06:59:44.383Z,100116.59
2023-03-29T07:02:54.955Z,100122.41
2023-03-29T07:06:04.258Z,100124.31
2023-03-29T07:09:09.014Z,100124.00
2023-03-29T07:12:29.382Z,100127.25
2023-03-29T07:15:36.114Z,100134.09
2023-03-29T07:18:56.051Z,100139.06
2023-03-29T07:42:58.964Z,100143.38
2023-03-29T07:46:05.922Z,100151.81
2023-03-29T07:49:10.433Z,100154.63
2023-03-29T07:52:12.998Z,100149.81
2023-03-29T07:55:18.806Z,100149.16
2023-03-29T07:58:40.390Z,100154.28
2023-03-29T08:01:42.961Z,100148.84
2023-03-29T08:04:54.784Z,100153.84
2023-03-29T08:08:17.232Z,100154.28
2023-03-29T08:11:26.238Z,100157.97
2023-03-29T08:14:33.449Z,100157.56
2023-03-29T08:17:44.944Z,100153.53
2023-03-29T08:20:47.432Z,100152.50
2023-03-29T08:23:49.694Z,100156.31
2023-03-29T08:26:59.102Z,100144.84
2023-03-29T08:30:01.465Z,100152.78
2023-03-29T08:33:03.917Z,100148.53
2023-03-29T08:36:06.184Z,100137.38
2023-03-29T08:39:12.325Z,100142.75
2023-03-29T08:42:39.819Z,100157.72
2023-03-29T08:45:44.849Z,100151.94
2023-03-29T08:48:57.717Z,100150.53
2023-03-29T08:52:05.282Z,100150.31
2023-03-29T08:55:17.711Z,100148.16
2023-03-29T08:58:40.562Z,100137.00
2023-03-29T09:01:43.625Z,100145.47
2023-03-29T09:04:48.495Z,100147.19
2023-03-29T09:08:17.434Z,100144.97
2023-03-29T09:11:44.833Z,100144.22
2023-03-29T09:14:50.774Z,100143.44
2023-03-29T09:18:14.085Z,100145.22
2023-03-29T09:21:35.598Z,100132.88
2023-03-29T09:25:05.973Z,100132.03
2023-03-29T09:28:55.611Z,100137.84
2023-03-29T09:31:59.186Z,100137.19
2023-03-29T09:35:18.737Z,100133.63
2023-03-29T09:38:23.000Z,100140.78
2023-03-29T09:41:43.567Z,100136.00
2023-03-29T09:44:53.584Z,100137.97
2023-03-29T09:48:06.438Z,100135.00
2023-03-29T09:51:11.445Z,100128.16
2023-03-29T09:54:14.928Z,100131.31
2023-03-29T09:57:46.225Z,100135.28
2023-03-29T10:00:51.083Z,100136.47
2023-03-29T10:03:54.080Z,100132.47
2023-03-29T10:06:59.976Z,100128.06
2023-03-29T10:10:02.029Z,100127.84
2023-03-29T10:13:10.979Z,100121.00
2023-03-29T10:16:25.875Z,100103.81
2023-03-29T10:19:31.015Z,100110.75
2023-03-29T10:22:37.640Z,100108.56
2023-03-29T10:25:42.560Z,100099.34
2023-03-29T10:28:45.423Z,100097.75
2023-03-29T10:31:48.020Z,100084.28
2023-03-29T10:34:52.056Z,100089.88
2023-03-29T10:38:00.189Z,100086.94
2023-03-29T10:41:12.920Z,100076.56
2023-03-29T10:44:32.888Z,100087.63
2023-03-29T10:47:35.442Z,100077.56
2023-03-29T10:50:38.256Z,100076.13
2023-03-29T10:53:41.126Z,100079.25
2023-03-29T10:56:58.012Z,100067.97
2023-03-29T11:00:23.671Z,100078.66
2023-03-29T11:03:31.482Z,100049.03
2023-03-29T11:06:57.352Z,100054.78
2023-03-29T11:10:25.990Z,100060.56
2023-03-29T11:13:37.452Z,100064.03
2023-03-29T11:16:42.749Z,100056.59
2023-03-29T11:20:05.205Z,100051.38
2023-03-29T11:23:27.978Z,100046.94
2023-03-29T11:26:33.085Z,100049.31
2023-03-29T11:30:03.790Z,100039.00
2023-03-29T11:33:16.650Z,100038.84
2023-03-29T11:36:32.347Z,100033.91
2023-03-29T11:39:48.038Z,100029.16
2023-03-29T11:42:54.363Z,100020.03
2023-03-29T11:46:02.501Z,100019.50
2023-03-29T11:49:16.680Z,100011.28
2023-03-29T11:52:25.678Z,100021.28
2023-03-29T11:55:33.059Z,100011.19
2023-03-29T11:58:40.952Z,100014.78
2023-03-29T12:01:57.513Z,100006.16
2023-03-29T12:05:07.530Z,100004.81
2023-03-29T12:08:16.855Z,100004.44
2023-03-29T12:11:19.044Z,99995.56
2023-03-29T12:14:28.333Z,99998.41
2023-03-29T12:17:39.399Z,99999.06
2023-03-29T12:20:42.195Z,99988.16
2023-03-29T12:23:48.099Z,99993.25
2023-03-29T12:27:19.885Z,99988.13
2023-03-29T12:30:27.816Z,99988.94
2023-03-29T12:33:53.851Z,99987.38
2023-03-29T12:37:38.771Z,99988.59
2023-03-29T12:41:02.117Z,99991.31
2023-03-29T12:44:28.054Z,99971.66
2023-03-29T12:47:51.486Z,99980.81
2023-03-29T12:51:01.792Z,99978.03
2023-03-29T12:54:10.294Z,99983.69
2023-03-29T12:57:25.624Z,99972.94
2023-03-29T13:00:42.249Z,99965.19
2023-03-29T13:03:50.419Z,99969.44
2023-03-29T13:07:02.798Z,99964.38
2023-03-29T13:10:31.452Z,99963.19
2023-03-29T13:13:37.235Z,99971.41
2023-03-29T13:16:41.670Z,99958.38
2023-03-29T13:19:49.402Z,99961.72
2023-03-29T13:23:02.375Z,99951.16
2023-03-29T13:26:28.964Z,99946.44
2023-03-29T13:29:55.876Z,99947.47
2023-03-29T13:33:39.652Z,99940.25
2023-03-29T13:36:58.607Z,99938.13
2023-03-29T13:40:00.717Z,99929.81
2023-03-29T13:43:19.162Z,99931.63
2023-03-29T13:46:36.600Z,99926.03
2023-03-29T13:49:42.429Z,99920.28
2023-03-29T13:53:10.158Z,99918.53
2023-03-29T13:56:19.714Z,99911.19
2023-03-29T13:59:41.768Z,99924.22
2023-03-29T14:02:49.546Z,99919.13
2023-03-29T14:05:58.926Z,99922.25
2023-03-29T14:09:06.392Z,99915.44
2023-03-29T14:12:12.223Z,99918.69
2023-03-29T14:15:36.399Z,99905.47
2023-03-29T14:18:41.311Z,99909.16
2023-03-29T14:21:44.370Z,99904.41
2023-03-29T14:24:51.642Z,99919.81
2023-03-29T14:27:53.638Z,99906.34
2023-03-29T14:30:56.673Z,99909.69
2023-03-29T14:34:04.614Z,99913.78
2023-03-29T14:37:09.095Z,99907.66
2023-03-29T14:40:21.212Z,99903.47
2023-03-29T14:43:24.235Z,99903.78
2023-03-29T14:46:27.399Z,99895.97
2023-03-29T14:49:30.147Z,99890.03
2023-03-29T14:52:33.505Z,99887.91
2023-03-29T14:55:36.587Z,99888.00
2023-03-29T14:58:40.183Z,99891.53
2023-03-29T15:01:44.598Z,99884.66
2023-03-29T15:04:55.692Z,99878.91
2023-03-29T15:07:57.834Z,99877.63
2023-03-29T15:11:00.169Z,99873.25
2023-03-29T15:14:08.802Z,99863.75
2023-03-29T15:17:50.921Z,99868.63
2023-03-29T15:20:54.626Z,99862.97
2023-03-29T15:23:58.550Z,99861.97
2023-03-29T15:27:12.376Z,99865.13
2023-03-29T15:30:17.578Z,99867.63
2023-03-29T15:33:23.056Z,99863.94
2023-03-29T15:36:25.049Z,99861.00
2023-03-29T15:39:28.800Z,99872.69
2023-03-29T15:42:31.525Z,99862.22
2023-03-29T15:45:33.484Z,99863.13
2023-03-29T15:48:35.363Z,99867.63
2023-03-29T15:51:37.472Z,99865.81
2023-03-29T15:54:39.458Z,99859.09
2023-03-29T15:57:46.460Z,99855.28
2023-03-29T16:00:53.859Z,99863.88
2023-03-29T16:03:57.890Z,99871.13
2023-03-29T16:07:01.340Z,99868.63
2023-03-29T16:10:03.945Z,99863.66
2023-03-29T16:13:06.465Z,99860.63
2023-03-29T16:16:10.744Z,99867.38
2023-03-29T16:19:13.042Z,99868.06
2023-03-29T16:22:14.910Z,99866.69
2023-03-29T16:25:19.297Z,99869.69
2023-03-29T16:28:21.767Z,99870.00
2023-03-29T16:31:25.882Z,99871.66
2023-03-29T16:34:28.595Z,99868.91
2023-03-29T16:37:30.446Z,99873.25
2023-03-29T16:40:33.323Z,99871.13
2023-03-29T16:43:38.576Z,99866.53
2023-03-29T16:46:41.611Z,99863.44
2023-03-29T16:49:45.316Z,99860.22
2023-03-29T16:52:49.009Z,99861.72
2023-03-29T16:55:51.005Z,99861.41
2023-03-29T16:58:52.918Z,99858.22
2023-03-29T17:01:54.937Z,99846.34
2023-03-29T17:04:57.726Z,99858.03
2023-03-29T17:07:59.655Z,99846.88
2023-03-29T17:11:03.111Z,99850.09
2023-03-29T17:14:05.133Z,99851.13
2023-03-29T17:17:06.986Z,99855.72
2023-03-29T17:20:12.360Z,99856.69
2023-03-29T17:23:14.367Z,99857.09
2023-03-29T17:26:16.227Z,99861.91
2023-03-29T17:29:18.172Z,99865.47
2023-03-29T17:32:20.497Z,99864.44
2023-03-29T17:35:22.679Z,99866.31
2023-03-29T17:38:26.759Z,99871.19
2023-03-29T17:41:30.785Z,99869.06
2023-03-29T17:44:34.780Z,99869.78
2023-03-29T17:47:37.602Z,99867.31
2023-03-29T17:50:39.863Z,99872.69
2023-03-29T17:53:41.997Z,99876.22
2023-03-29T17:56:43.977Z,99880.41
2023-03-29T17:59:46.210Z,99879.56
2023-03-29T18:02:48.425Z,99889.00
2023-03-29T18:05:51.259Z,99889.44
2023-03-29T18:08:53.530Z,99889.72
2023-03-29T18:11:55.604Z,99889.06
2023-03-29T18:14:57.800Z,99890.69
2023-03-29T18:18:00.089Z,99896.94
2023-03-29T18:21:02.348Z,99897.81
2023-03-29T18:24:04.311Z,99900.31
2023-03-29T18:27:06.649Z,99896.19
2023-03-29T18:30:09.440Z,99900.31
2023-03-29T18:33:11.864Z,99896.94
2023-03-29T18:36:14.570Z,99907.16
2023-03-29T18:39:16.911Z,99905.81
2023-03-29T18:42:21.956Z,99917.84
2023-03-29T18:45:24.093Z,99918.13
2023-03-29T18:48:26.539Z,99916.16
2023-03-29T18:51:29.345Z,99930.38
2023-03-29T18:54:31.828Z,99926.44
2023-03-29T18:57:34.200Z,99924.84
2023-03-29T19:00:37.355Z,99924.03
2023-03-29T19:03:40.103Z,99931.47
2023-03-29T19:06:42.610Z,99927.25
2023-03-29T19:09:45.316Z,99933.06
2023-03-29T19:12:47.517Z,99940.59
2023-03-29T19:15:51.833Z,99939.63
2023-03-29T19:18:54.319Z,99939.56
2023-03-29T19:21:58.336Z,99939.63
2023-03-29T19:25:04.675Z,99934.72
2023-03-29T19:28:06.997Z,99942.44
2023-03-29T19:31:10.228Z,99933.25
2023-03-29T19:34:13.507Z,99942.97
2023-03-29T19:37:17.622Z,99945.56
2023-03-29T19:40:20.154Z,99936.53
2023-03-29T19:43:22.329Z,99937.81
2023-03-29T19:46:24.685Z,99933.16
2023-03-29T19:49:26.779Z,99926.34
2023-03-29T19:52:30.487Z,99920.28
2023-03-29T19:55:32.534Z,99927.78
2023-03-29T19:58:35.004Z,99922.78
2023-03-29T20:01:39.451Z,99918.53
2023-03-29T20:04:41.651Z,99911.75
2023-03-29T20:07:44.560Z,99912.88
2023-03-29T20:10:46.435Z,99920.56
2023-03-29T20:13:48.782Z,99902.22
2023-03-29T20:16:51.107Z,99909.97
2023-03-29T20:19:53.988Z,99900.19
2023-03-29T20:23:04.640Z,99911.38
2023-03-29T20:26:08.425Z,99923.31
2023-03-29T20:29:10.347Z,99917.31
2023-03-29T20:32:12.514Z,99918.16
2023-03-29T20:35:14.567Z,99906.00
2023-03-29T20:38:16.480Z,99909.09
2023-03-29T20:41:21.265Z,99902.44
2023-03-29T20:44:28.350Z,99904.22
2023-03-29T20:47:30.341Z,99910.88
2023-03-29T20:50:32.389Z,99914.69
2023-03-29T20:53:34.293Z,99912.34
2023-03-29T20:56:39.831Z,99914.06
2023-03-29T20:59:45.766Z,99905.91
2023-03-29T21:02:47.804Z,99906.69
2023-03-29T21:05:54.240Z,99905.13
2023-03-29T21:08:57.470Z,99895.94
2023-03-29T21:11:59.832Z,99894.97
2023-03-29T21:15:02.406Z,99889.66
2023-03-29T21:18:04.658Z,99890.38
2023-03-29T21:21:08.060Z,99894.84
2023-03-29T21:24:13.136Z,99904.03
2023-03-29T21:27:15.049Z,99900.56
2023-03-29T21:30:17.123Z,99906.81
2023-03-29T21:33:19.078Z,99898.56
2023-03-29T21:36:20.992Z,99898.69
2023-03-29T21:39:26.067Z,99897.50
2023-03-29T21:42:28.382Z,99893.16
2023-03-29T21:45:30.606Z,99895.97
2023-03-29T21:48:32.862Z,99902.72
2023-03-29T21:51:35.374Z,99905.94
2023-03-29T21:54:37.236Z,99900.34
2023-03-29T21:57:39.077Z,99903.69
2023-03-29T22:00:41.632Z,99898.72
2023-03-29T22:03:44.322Z,99892.19
2023-03-29T22:06:46.369Z,99898.00
2023-03-29T22:09:48.440Z,99893.00
2023-03-29T22:12:51.421Z,99894.84
2023-03-29T22:16:03.620Z,99909.06
2023-03-29T22:19:06.419Z,99896.47
2023-03-29T22:22:13.372Z,99901.50
2023-03-29T22:25:17.572Z,99903.50
2023-03-29T22:28:19.531Z,99913.69
2023-03-29T22:31:23.529Z,99908.69
2023-03-29T22:34:25.695Z,99900.34
2023-03-29T22:37:27.519Z,99902.88
2023-03-29T22:40:33.128Z,99889.22
2023-03-29T22:43:36.486Z,99907.78
2023-03-29T22:46:38.581Z,99899.34
2023-03-29T22:49:40.586Z,99893.41
2023-03-29T22:52:42.475Z,99885.91
2023-03-29T22:55:45.862Z,99876.69
2023-03-29T22:58:47.964Z,99889.38
2023-03-29T23:01:50.075Z,99879.09
2023-03-29T23:04:52.191Z,99890.94
2023-03-29T23:07:55.759Z,99887.63
2023-03-29T23:10:58.384Z,99884.41
2023-03-29T23:14:03.991Z,99886.19
2023-03-29T23:17:06.114Z,99886.13
2023-03-29T23:20:11.047Z,99887.06
2023-03-29T23:23:13.212Z,99889.75
2023-03-29T23:26:15.892Z,99883.00
2023-03-29T23:29:17.930Z,99889.81
2023-03-29T23:32:20.528Z,99886.19
2023-03-29T23:35:22.461Z,99881.06
2023-03-29T23:38:24.658Z,99892.13
2023-03-29T23:41:30.744Z,99902.41
2023-03-29T23:44:32.740Z,99896.75
2023-03-29T23:47:35.479Z,99886.72
2023-03-29T23:50:37.487Z,99897.75
2023-03-29T23:53:39.639Z,99893.69
2023-03-29T23:56:41.542Z,99887.53
2023-03-29T23:59:43.501Z,99884.88
